sensor_id;sensor_type;location;lat;lon;timestamp;pressure;altitude;pressure_sealevel;temperature;humidity
24996;BME280;13016;52.162;21.034;2024-03-23T01:06:58;99581.92;;;17.33;51.97
24996;BME280;13016;52.162;21.034;2024-03-23T01:13:08;99568.89;;;17.07;52.12
24996;BME280;13016;52.162;21.034;2024-03-23T01:19:34;99566.68;;;16.85;53.07
24996;BME280;13016;52.162;21.034;2024-03-23T01:26:28;99558.92;;;16.59;53.72
24996;BME280;13016;52.162;21.034;2024-03-23T01:32:57;99548.61;;;16.48;54.41
24996;BME280;13016;52.162;21.034;2024-03-23T01:39:07;99549.25;;;16.60;54.36
24996;BME280;13016;52.162;21.034;2024-03-23T01:45:33;99548.57;;;16.43;54.70
24996;BME280;13016;52.162;21.034;2024-03-23T01:52:21;99552.11;;;16.51;54.88
24996;BME280;13016;52.162;21.034;2024-03-23T01:59:01;99539.82;;;16.58;54.93
24996;BME280;13016;52.162;21.034;2024-03-23T02:05:48;99537.02;;;16.68;54.81
24996;BME280;13016;52.162;21.034;2024-03-23T02:12:20;99529.81;;;16.66;54.96
24996;BME280;13016;52.162;21.034;2024-03-23T02:19:00;99517.05;;;16.74;55.04
24996;BME280;13016;52.162;21.034;2024-03-23T02:25:56;99523.73;;;16.81;54.85
24996;BME280;13016;52.162;21.034;2024-03-23T02:32:36;99516.73;;;16.78;54.86
24996;BME280;13016;52.162;21.034;2024-03-23T02:39:04;99512.52;;;16.94;54.81
24996;BME280;13016;52.162;21.034;2024-03-23T02:45:30;99507.66;;;16.80;54.98
24996;BME280;13016;52.162;21.034;2024-03-23T02:52:10;99505.17;;;16.76;55.14
24996;BME280;13016;52.162;21.034;2024-03-23T02:58:53;99496.35;;;16.93;55.07
24996;BME280;13016;52.162;21.034;2024-03-23T03:05:33;99491.25;;;17.22;54.61
24996;BME280;13016;52.162;21.034;2024-03-23T03:12:26;99477.48;;;17.05;54.71
24996;BME280;13016;52.162;21.034;2024-03-23T03:19:03;99464.57;;;16.90;55.59
24996;BME280;13016;52.162;21.034;2024-03-23T03:25:42;99457.91;;;16.96;55.46
24996;BME280;13016;52.162;21.034;2024-03-23T03:39:47;99470.86;;;16.91;55.58
24996;BME280;13016;52.162;21.034;2024-03-23T03:46:03;99470.56;;;16.91;55.76
24996;BME280;13016;52.162;21.034;2024-03-23T03:52:27;99471.14;;;16.85;55.85
24996;BME280;13016;52.162;21.034;2024-03-23T04:02:50;99462.77;;;16.68;56.33
24996;BME280;13016;52.162;21.034;2024-03-23T04:09:16;99461.35;;;16.70;56.48
24996;BME280;13016;52.162;21.034;2024-03-23T04:15:32;99453.17;;;16.82;56.41
24996;BME280;13016;52.162;21.034;2024-03-23T04:21:37;99452.57;;;16.88;56.22
24996;BME280;13016;52.162;21.034;2024-03-23T04:27:53;99451.98;;;16.71;56.26
24996;BME280;13016;52.162;21.034;2024-03-23T04:33:53;99435.64;;;17.02;56.01
24996;BME280;13016;52.162;21.034;2024-03-23T05:26:23;99411.91;;;17.97;52.95
24996;BME280;13016;52.162;21.034;2024-03-23T05:32:24;99396.77;;;17.36;53.56
24996;BME280;13016;52.162;21.034;2024-03-23T05:38:25;99394.76;;;17.16;54.80
24996;BME280;13016;52.162;21.034;2024-03-23T05:44:25;99395.39;;;17.17;54.93
24996;BME280;13016;52.162;21.034;2024-03-23T06:37:41;99373.35;;;17.90;53.12
24996;BME280;13016;52.162;21.034;2024-03-23T06:44:22;99371.09;;;17.48;53.92
24996;BME280;13016;52.162;21.034;2024-03-23T07:03:09;99345.67;;;17.72;53.40
24996;BME280;13016;52.162;21.034;2024-03-23T07:09:46;99340.15;;;17.64;53.57
24996;BME280;13016;52.162;21.034;2024-03-23T07:26:06;99337.02;;;17.35;55.20
24996;BME280;13016;52.162;21.034;2024-03-23T09:54:19;99141.66;;;22.17;43.73
24996;BME280;13016;52.162;21.034;2024-03-23T10:18:31;99077.20;;;21.94;42.55
24996;BME280;13016;52.162;21.034;2024-03-23T10:24:48;99039.11;;;21.35;43.22
24996;BME280;13016;52.162;21.034;2024-03-23T10:43:30;98991.33;;;22.04;42.23
24996;BME280;13016;52.162;21.034;2024-03-23T10:49:40;98970.04;;;22.30;41.88
24996;BME280;13016;52.162;21.034;2024-03-23T11:24:32;98916.97;;;22.77;39.11
24996;BME280;13016;52.162;21.034;2024-03-23T11:44:30;98878.35;;;23.54;36.49
24996;BME280;13016;52.162;21.034;2024-03-23T11:57:09;98849.45;;;23.79;36.10
24996;BME280;13016;52.162;21.034;2024-03-23T12:03:36;98846.88;;;24.00;35.41
24996;BME280;13016;52.162;21.034;2024-03-23T12:19:22;98823.21;;;24.23;34.07
24996;BME280;13016;52.162;21.034;2024-03-23T12:25:23;98816.44;;;24.36;33.36
24996;BME280;13016;52.162;21.034;2024-03-23T12:31:23;98809.55;;;24.28;33.00
24996;BME280;13016;52.162;21.034;2024-03-23T12:37:23;98795.34;;;24.12;33.29
24996;BME280;13016;52.162;21.034;2024-03-23T12:43:24;98784.77;;;24.32;33.55
24996;BME280;13016;52.162;21.034;2024-03-23T12:49:24;98765.64;;;23.84;33.20
24996;BME280;13016;52.162;21.034;2024-03-23T12:55:24;98755.11;;;23.84;33.43
24996;BME280;13016;52.162;21.034;2024-03-23T13:01:25;98748.36;;;23.87;33.99
24996;BME280;13016;52.162;21.034;2024-03-23T13:07:25;98733.39;;;23.84;34.37
24996;BME280;13016;52.162;21.034;2024-03-23T13:13:26;98721.61;;;23.73;34.22
24996;BME280;13016;52.162;21.034;2024-03-23T13:19:26;98705.91;;;23.73;33.79
24996;BME280;13016;52.162;21.034;2024-03-23T13:25:27;98690.84;;;23.52;33.88
24996;BME280;13016;52.162;21.034;2024-03-23T13:31:28;98681.84;;;23.41;34.70
24996;BME280;13016;52.162;21.034;2024-03-23T13:37:29;98662.00;;;23.35;34.06
24996;BME280;13016;52.162;21.034;2024-03-23T13:43:29;98650.45;;;23.43;34.42
24996;BME280;13016;52.162;21.034;2024-03-23T13:49:31;98634.05;;;23.58;34.24
24996;BME280;13016;52.162;21.034;2024-03-23T13:55:32;98633.16;;;23.74;34.47
24996;BME280;13016;52.162;21.034;2024-03-23T14:01:32;98626.52;;;23.49;33.86
24996;BME280;13016;52.162;21.034;2024-03-23T14:07:33;98621.52;;;23.37;34.35
24996;BME280;13016;52.162;21.034;2024-03-23T14:13:33;98615.08;;;23.51;34.44
24996;BME280;13016;52.162;21.034;2024-03-23T14:19:34;98594.73;;;23.28;34.00
24996;BME280;13016;52.162;21.034;2024-03-23T14:25:34;98575.66;;;23.23;34.25
24996;BME280;13016;52.162;21.034;2024-03-23T14:31:34;98554.94;;;23.00;34.33
24996;BME280;13016;52.162;21.034;2024-03-23T14:37:36;98546.27;;;22.83;34.54
24996;BME280;13016;52.162;21.034;2024-03-23T14:43:36;98535.77;;;22.85;34.65
24996;BME280;13016;52.162;21.034;2024-03-23T14:49:37;98533.45;;;23.14;34.78
24996;BME280;13016;52.162;21.034;2024-03-23T14:55:37;98548.42;;;23.26;35.14
24996;BME280;13016;52.162;21.034;2024-03-23T15:01:37;98559.79;;;23.37;36.65
24996;BME280;13016;52.162;21.034;2024-03-23T15:07:38;98564.70;;;23.16;38.50
24996;BME280;13016;52.162;21.034;2024-03-23T15:13:40;98574.52;;;23.07;39.51
24996;BME280;13016;52.162;21.034;2024-03-23T15:19:40;98589.62;;;22.90;39.74
24996;BME280;13016;52.162;21.034;2024-03-23T15:25:41;98588.20;;;21.93;42.11
24996;BME280;13016;52.162;21.034;2024-03-23T15:31:41;98614.05;;;20.88;46.53
24996;BME280;13016;52.162;21.034;2024-03-23T15:37:41;98648.97;;;20.14;49.18
24996;BME280;13016;52.162;21.034;2024-03-23T15:43:41;98676.20;;;19.68;51.17
24996;BME280;13016;52.162;21.034;2024-03-23T15:50:02;98696.64;;;19.50;52.21
24996;BME280;13016;52.162;21.034;2024-03-23T15:56:04;98685.04;;;19.52;52.70
24996;BME280;13016;52.162;21.034;2024-03-23T16:02:23;98671.61;;;19.37;53.55
24996;BME280;13016;52.162;21.034;2024-03-23T16:08:24;98609.88;;;19.32;54.09
24996;BME280;13016;52.162;21.034;2024-03-23T16:14:25;98576.02;;;19.11;53.90
24996;BME280;13016;52.162;21.034;2024-03-23T16:20:25;98541.66;;;18.84;54.44
24996;BME280;13016;52.162;21.034;2024-03-23T16:26:26;98550.16;;;18.75;54.69
24996;BME280;13016;52.162;21.034;2024-03-23T16:32:27;98547.53;;;18.85;53.96
24996;BME280;13016;52.162;21.034;2024-03-23T16:38:28;98561.09;;;18.66;54.16
24996;BME280;13016;52.162;21.034;2024-03-23T16:44:28;98566.98;;;18.89;53.83
24996;BME280;13016;52.162;21.034;2024-03-23T16:50:28;98556.12;;;18.80;53.71
24996;BME280;13016;52.162;21.034;2024-03-23T16:56:29;98565.14;;;19.01;53.59
24996;BME280;13016;52.162;21.034;2024-03-23T17:02:29;98569.96;;;19.04;53.27
24996;BME280;13016;52.162;21.034;2024-03-23T17:09:04;98582.60;;;18.96;53.14
24996;BME280;13016;52.162;21.034;2024-03-23T17:15:05;98575.68;;;18.62;53.67
24996;BME280;13016;52.162;21.034;2024-03-23T17:21:06;98571.33;;;18.57;53.83
24996;BME280;13016;52.162;21.034;2024-03-23T17:27:06;98572.30;;;18.51;53.79
24996;BME280;13016;52.162;21.034;2024-03-23T17:33:06;98572.10;;;18.31;54.13
24996;BME280;13016;52.162;21.034;2024-03-23T17:39:09;98582.95;;;18.44;53.38
24996;BME280;13016;52.162;21.034;2024-03-23T17:45:09;98588.83;;;18.39;53.37
24996;BME280;13016;52.162;21.034;2024-03-23T17:51:10;98596.39;;;18.36;53.46
24996;BME280;13016;52.162;21.034;2024-03-23T17:57:10;98606.91;;;18.27;53.29
24996;BME280;13016;52.162;21.034;2024-03-23T18:03:10;98617.41;;;18.38;52.84
24996;BME280;13016;52.162;21.034;2024-03-23T18:09:11;98640.39;;;18.40;52.17
24996;BME280;13016;52.162;21.034;2024-03-23T18:15:11;98648.55;;;18.35;51.98
24996;BME280;13016;52.162;21.034;2024-03-23T18:21:11;98659.30;;;18.25;52.22
24996;BME280;13016;52.162;21.034;2024-03-23T18:27:11;98673.23;;;18.13;51.51
24996;BME280;13016;52.162;21.034;2024-03-23T18:33:12;98682.79;;;18.08;51.10
24996;BME280;13016;52.162;21.034;2024-03-23T18:39:12;98688.77;;;18.08;50.49
24996;BME280;13016;52.162;21.034;2024-03-23T18:45:12;98718.33;;;17.95;50.37
24996;BME280;13016;52.162;21.034;2024-03-23T18:51:13;98755.10;;;17.74;50.57
24996;BME280;13016;52.162;21.034;2024-03-23T18:57:13;98784.85;;;17.23;49.67
24996;BME280;13016;52.162;21.034;2024-03-23T19:03:14;98807.29;;;16.34;49.68
24996;BME280;13016;52.162;21.034;2024-03-23T19:09:14;98824.17;;;15.93;49.84
24996;BME280;13016;52.162;21.034;2024-03-23T19:15:15;98842.16;;;15.50;50.78
24996;BME280;13016;52.162;21.034;2024-03-23T19:21:18;98866.30;;;15.08;50.14
24996;BME280;13016;52.162;21.034;2024-03-23T19:27:20;98909.25;;;14.63;49.34
24996;BME280;13016;52.162;21.034;2024-03-23T19:33:21;98923.19;;;14.34;49.23
24996;BME280;13016;52.162;21.034;2024-03-23T19:39:21;98961.81;;;14.43;49.10
24996;BME280;13016;52.162;21.034;2024-03-23T19:45:21;98990.90;;;14.14;49.63
24996;BME280;13016;52.162;21.034;2024-03-23T19:51:22;99008.34;;;13.84;50.15
24996;BME280;13016;52.162;21.034;2024-03-23T19:57:22;99017.75;;;13.62;50.94
24996;BME280;13016;52.162;21.034;2024-03-23T20:03:23;99014.38;;;13.75;50.27
24996;BME280;13016;52.162;21.034;2024-03-23T20:09:23;99037.38;;;13.70;50.01
24996;BME280;13016;52.162;21.034;2024-03-23T20:15:26;99058.72;;;13.65;50.02
24996;BME280;13016;52.162;21.034;2024-03-23T20:21:51;99052.08;;;13.50;49.96
24996;BME280;13016;52.162;21.034;2024-03-23T20:27:52;99069.45;;;13.40;49.46
24996;BME280;13016;52.162;21.034;2024-03-23T20:33:52;99090.50;;;13.27;49.22
24996;BME280;13016;52.162;21.034;2024-03-23T20:39:52;99095.77;;;13.06;49.46
24996;BME280;13016;52.162;21.034;2024-03-23T20:46:00;99113.91;;;13.00;49.01
24996;BME280;13016;52.162;21.034;2024-03-23T20:52:01;99108.33;;;13.02;48.08
24996;BME280;13016;52.162;21.034;2024-03-23T20:58:01;99116.66;;;13.04;48.32
24996;BME280;13016;52.162;21.034;2024-03-23T21:04:01;99141.87;;;13.11;47.92
24996;BME280;13016;52.162;21.034;2024-03-23T21:10:02;99131.92;;;12.80;47.93
24996;BME280;13016;52.162;21.034;2024-03-23T21:16:03;99150.90;;;13.02;47.86
24996;BME280;13016;52.162;21.034;2024-03-23T21:22:03;99143.61;;;13.08;47.57
24996;BME280;13016;52.162;21.034;2024-03-23T21:28:04;99144.86;;;13.19;47.18
24996;BME280;13016;52.162;21.034;2024-03-23T21:34:04;99151.29;;;12.85;47.00
24996;BME280;13016;52.162;21.034;2024-03-23T21:40:05;99173.75;;;12.95;47.03
24996;BME280;13016;52.162;21.034;2024-03-23T21:46:05;99158.50;;;12.96;47.08
24996;BME280;13016;52.162;21.034;2024-03-23T21:52:06;99139.03;;;12.96;46.87
24996;BME280;13016;52.162;21.034;2024-03-23T21:58:06;99139.52;;;13.06;47.12
24996;BME280;13016;52.162;21.034;2024-03-23T22:04:08;99151.61;;;13.27;46.94
24996;BME280;13016;52.162;21.034;2024-03-23T22:10:08;99164.56;;;13.25;47.07
24996;BME280;13016;52.162;21.034;2024-03-23T22:16:09;99169.12;;;13.33;47.10
24996;BME280;13016;52.162;21.034;2024-03-23T22:22:09;99176.79;;;13.24;47.11
24996;BME280;13016;52.162;21.034;2024-03-23T22:28:09;99169.74;;;13.16;47.30
24996;BME280;13016;52.162;21.034;2024-03-23T22:34:10;99173.42;;;13.32;46.95
24996;BME280;13016;52.162;21.034;2024-03-23T22:40:10;99176.73;;;13.37;46.79
24996;BME280;13016;52.162;21.034;2024-03-23T22:46:11;99176.02;;;13.40;46.61
24996;BME280;13016;52.162;21.034;2024-03-23T22:52:11;99164.85;;;13.39;46.29
24996;BME280;13016;52.162;21.034;2024-03-23T22:58:11;99160.23;;;13.35;46.45
24996;BME280;13016;52.162;21.034;2024-03-23T23:04:11;99171.36;;;13.45;46.34
24996;BME280;13016;52.162;21.034;2024-03-23T23:10:12;99179.66;;;13.49;46.34
24996;BME280;13016;52.162;21.034;2024-03-23T23:16:12;99195.24;;;13.49;46.34
24996;BME280;13016;52.162;21.034;2024-03-23T23:22:12;99197.74;;;13.45;46.45
24996;BME280;13016;52.162;21.034;2024-03-23T23:28:13;99189.10;;;13.39;46.82
24996;BME280;13016;52.162;21.034;2024-03-23T23:34:13;99174.71;;;13.26;47.38
24996;BME280;13016;52.162;21.034;2024-03-23T23:40:13;99180.89;;;13.13;47.41
24996;BME280;13016;52.162;21.034;2024-03-23T23:46:13;99186.73;;;12.93;47.75
24996;BME280;13016;52.162;21.034;2024-03-23T23:52:14;99190.91;;;12.84;47.74
24996;BME280;13016;52.162;21.034;2024-03-23T23:58:14;99204.06;;;12.91;47.55
